sensor_id;sensor_type;location;lat;lon;timestamp;P1;durP1;ratioP1;P2;durP2;ratioP2
85318;SDS011;75722;49.004;12.120;2024-02-21T00:01:05;5.05;;;2.75;;
85318;SDS011;75722;49.004;12.120;2024-02-21T00:03:31;8.43;;;2.72;;
85318;SDS011;75722;49.004;12.120;2024-02-21T00:05:56;8.48;;;2.40;;
85318;SDS011;75722;49.004;12.120;2024-02-21T00:08:21;5.43;;;2.20;;
85318;SDS011;75722;49.004;12.120;2024-02-21T00:10:47;8.03;;;2.30;;
85318;SDS011;75722;49.004;12.120;2024-02-21T00:13:12;7.07;;;2.20;;
85318;SDS011;75722;49.004;12.120;2024-02-21T00:15:37;5.47;;;1.80;;
85318;SDS011;75722;49.004;12.120;2024-02-21T00:18:03;13.25;;;2.78;;
85318;SDS011;75722;49.004;12.120;2024-02-21T00:20:28;6.85;;;2.50;;
85318;SDS011;75722;49.004;12.120;2024-02-21T00:22:54;6.97;;;2.53;;
85318;SDS011;75722;49.004;12.120;2024-02-21T00:25:20;8.90;;;2.80;;
85318;SDS011;75722;49.004;12.120;2024-02-21T00:27:45;7.35;;;2.50;;
85318;SDS011;75722;49.004;12.120;2024-02-21T00:30:10;7.53;;;2.30;;
85318;SDS011;75722;49.004;12.120;2024-02-21T00:32:36;8.13;;;2.75;;
85318;SDS011;75722;49.004;12.120;2024-02-21T00:35:02;9.73;;;2.17;;
85318;SDS011;75722;49.004;12.120;2024-02-21T00:37:27;7.53;;;2.42;;
85318;SDS011;75722;49.004;12.120;2024-02-21T00:39:54;8.15;;;2.65;;
85318;SDS011;75722;49.004;12.120;2024-02-21T00:42:19;4.95;;;2.30;;
85318;SDS011;75722;49.004;12.120;2024-02-21T00:44:45;5.70;;;2.63;;
85318;SDS011;75722;49.004;12.120;2024-02-21T00:47:10;9.07;;;2.20;;
85318;SDS011;75722;49.004;12.120;2024-02-21T00:49:35;11.33;;;2.83;;
85318;SDS011;75722;49.004;12.120;2024-02-21T00:52:01;7.10;;;2.60;;
85318;SDS011;75722;49.004;12.120;2024-02-21T00:54:26;6.82;;;2.53;;
85318;SDS011;75722;49.004;12.120;2024-02-21T00:56:51;7.43;;;2.30;;
85318;SDS011;75722;49.004;12.120;2024-02-21T00:59:17;5.73;;;1.93;;
85318;SDS011;75722;49.004;12.120;2024-02-21T01:01:43;6.32;;;1.98;;
85318;SDS011;75722;49.004;12.120;2024-02-21T01:04:09;6.40;;;1.92;;
85318;SDS011;75722;49.004;12.120;2024-02-21T01:06:34;6.57;;;2.28;;
85318;SDS011;75722;49.004;12.120;2024-02-21T01:09:00;10.65;;;2.42;;
85318;SDS011;75722;49.004;12.120;2024-02-21T01:11:25;8.45;;;2.08;;
85318;SDS011;75722;49.004;12.120;2024-02-21T01:13:50;10.25;;;3.30;;
85318;SDS011;75722;49.004;12.120;2024-02-21T01:16:16;6.60;;;3.27;;
85318;SDS011;75722;49.004;12.120;2024-02-21T01:18:41;6.40;;;2.80;;
85318;SDS011;75722;49.004;12.120;2024-02-21T01:21:07;6.80;;;2.53;;
85318;SDS011;75722;49.004;12.120;2024-02-21T01:23:33;7.68;;;2.30;;
85318;SDS011;75722;49.004;12.120;2024-02-21T01:25:59;8.32;;;2.50;;
85318;SDS011;75722;49.004;12.120;2024-02-21T01:28:25;12.65;;;3.15;;
85318;SDS011;75722;49.004;12.120;2024-02-21T01:30:50;8.73;;;2.80;;
85318;SDS011;75722;49.004;12.120;2024-02-21T01:33:16;6.38;;;2.70;;
85318;SDS011;75722;49.004;12.120;2024-02-21T01:35:42;13.25;;;2.88;;
85318;SDS011;75722;49.004;12.120;2024-02-21T01:38:07;5.28;;;2.85;;
85318;SDS011;75722;49.004;12.120;2024-02-21T01:40:33;6.60;;;3.17;;
85318;SDS011;75722;49.004;12.120;2024-02-21T01:42:58;10.18;;;3.33;;
85318;SDS011;75722;49.004;12.120;2024-02-21T01:45:23;9.07;;;3.17;;
85318;SDS011;75722;49.004;12.120;2024-02-21T01:47:49;8.70;;;3.37;;
85318;SDS011;75722;49.004;12.120;2024-02-21T01:50:15;6.63;;;3.25;;
85318;SDS011;75722;49.004;12.120;2024-02-21T01:52:42;9.60;;;3.42;;
85318;SDS011;75722;49.004;12.120;2024-02-21T01:55:11;8.00;;;3.22;;
85318;SDS011;75722;49.004;12.120;2024-02-21T01:57:39;7.93;;;3.05;;
85318;SDS011;75722;49.004;12.120;2024-02-21T02:00:06;5.82;;;2.60;;
85318;SDS011;75722;49.004;12.120;2024-02-21T02:02:32;10.30;;;2.83;;
85318;SDS011;75722;49.004;12.120;2024-02-21T02:04:57;8.75;;;3.15;;
85318;SDS011;75722;49.004;12.120;2024-02-21T02:07:24;7.25;;;2.58;;
85318;SDS011;75722;49.004;12.120;2024-02-21T02:09:49;8.47;;;3.17;;
85318;SDS011;75722;49.004;12.120;2024-02-21T02:12:15;11.57;;;3.75;;
85318;SDS011;75722;49.004;12.120;2024-02-21T02:14:40;7.50;;;2.50;;
85318;SDS011;75722;49.004;12.120;2024-02-21T02:17:05;9.20;;;2.92;;
85318;SDS011;75722;49.004;12.120;2024-02-21T02:19:31;10.18;;;3.05;;
85318;SDS011;75722;49.004;12.120;2024-02-21T02:22:03;8.00;;;2.40;;
85318;SDS011;75722;49.004;12.120;2024-02-21T02:24:34;9.68;;;3.25;;
85318;SDS011;75722;49.004;12.120;2024-02-21T02:27:00;9.32;;;2.95;;
85318;SDS011;75722;49.004;12.120;2024-02-21T02:29:25;9.18;;;2.42;;
85318;SDS011;75722;49.004;12.120;2024-02-21T02:31:51;9.13;;;2.73;;
85318;SDS011;75722;49.004;12.120;2024-02-21T02:34:16;9.73;;;3.10;;
85318;SDS011;75722;49.004;12.120;2024-02-21T02:36:41;8.05;;;3.03;;
85318;SDS011;75722;49.004;12.120;2024-02-21T02:39:07;7.63;;;2.23;;
85318;SDS011;75722;49.004;12.120;2024-02-21T02:41:34;13.23;;;2.85;;
85318;SDS011;75722;49.004;12.120;2024-02-21T02:44:00;8.95;;;3.30;;
85318;SDS011;75722;49.004;12.120;2024-02-21T02:46:26;9.43;;;2.70;;
85318;SDS011;75722;49.004;12.120;2024-02-21T02:48:51;13.80;;;2.20;;
85318;SDS011;75722;49.004;12.120;2024-02-21T02:51:16;8.03;;;2.83;;
85318;SDS011;75722;49.004;12.120;2024-02-21T02:53:42;3.17;;;1.95;;
85318;SDS011;75722;49.004;12.120;2024-02-21T02:56:13;5.38;;;2.25;;
85318;SDS011;75722;49.004;12.120;2024-02-21T02:58:39;3.58;;;2.08;;
85318;SDS011;75722;49.004;12.120;2024-02-21T03:01:06;5.38;;;2.10;;
85318;SDS011;75722;49.004;12.120;2024-02-21T03:03:31;7.22;;;2.10;;
85318;SDS011;75722;49.004;12.120;2024-02-21T03:05:57;7.55;;;2.55;;
85318;SDS011;75722;49.004;12.120;2024-02-21T03:08:22;8.88;;;2.88;;
85318;SDS011;75722;49.004;12.120;2024-02-21T03:10:47;6.57;;;2.10;;
85318;SDS011;75722;49.004;12.120;2024-02-21T03:13:13;5.17;;;2.07;;
85318;SDS011;75722;49.004;12.120;2024-02-21T03:15:39;5.93;;;2.72;;
85318;SDS011;75722;49.004;12.120;2024-02-21T03:18:04;8.02;;;2.92;;
85318;SDS011;75722;49.004;12.120;2024-02-21T03:20:29;7.43;;;2.97;;
85318;SDS011;75722;49.004;12.120;2024-02-21T03:22:55;8.70;;;2.15;;
85318;SDS011;75722;49.004;12.120;2024-02-21T03:25:20;9.73;;;3.20;;
85318;SDS011;75722;49.004;12.120;2024-02-21T03:27:45;4.60;;;2.53;;
85318;SDS011;75722;49.004;12.120;2024-02-21T03:30:11;4.00;;;2.00;;
85318;SDS011;75722;49.004;12.120;2024-02-21T03:32:37;10.75;;;2.38;;
85318;SDS011;75722;49.004;12.120;2024-02-21T03:35:04;8.82;;;2.38;;
85318;SDS011;75722;49.004;12.120;2024-02-21T03:37:30;4.30;;;1.85;;
85318;SDS011;75722;49.004;12.120;2024-02-21T03:39:55;6.95;;;2.60;;
85318;SDS011;75722;49.004;12.120;2024-02-21T03:42:20;8.53;;;2.63;;
85318;SDS011;75722;49.004;12.120;2024-02-21T03:44:46;9.95;;;2.78;;
85318;SDS011;75722;49.004;12.120;2024-02-21T03:47:11;4.73;;;2.20;;
85318;SDS011;75722;49.004;12.120;2024-02-21T03:49:37;4.38;;;2.28;;
85318;SDS011;75722;49.004;12.120;2024-02-21T03:52:02;6.50;;;2.50;;
85318;SDS011;75722;49.004;12.120;2024-02-21T03:54:28;5.43;;;2.72;;
85318;SDS011;75722;49.004;12.120;2024-02-21T03:56:53;6.57;;;2.60;;
85318;SDS011;75722;49.004;12.120;2024-02-21T03:59:19;4.53;;;1.52;;
85318;SDS011;75722;49.004;12.120;2024-02-21T04:01:44;6.88;;;2.10;;
85318;SDS011;75722;49.004;12.120;2024-02-21T04:04:10;7.93;;;2.15;;
85318;SDS011;75722;49.004;12.120;2024-02-21T04:06:35;5.50;;;2.03;;
85318;SDS011;75722;49.004;12.120;2024-02-21T04:09:01;4.45;;;1.83;;
85318;SDS011;75722;49.004;12.120;2024-02-21T04:11:27;8.60;;;2.10;;
85318;SDS011;75722;49.004;12.120;2024-02-21T04:13:52;7.33;;;2.47;;
85318;SDS011;75722;49.004;12.120;2024-02-21T04:16:17;8.82;;;2.13;;
85318;SDS011;75722;49.004;12.120;2024-02-21T04:18:43;6.32;;;2.28;;
85318;SDS011;75722;49.004;12.120;2024-02-21T04:21:09;7.35;;;2.28;;
85318;SDS011;75722;49.004;12.120;2024-02-21T04:23:35;8.98;;;2.65;;
85318;SDS011;75722;49.004;12.120;2024-02-21T04:26:00;7.57;;;2.10;;
85318;SDS011;75722;49.004;12.120;2024-02-21T04:28:26;10.95;;;2.28;;
85318;SDS011;75722;49.004;12.120;2024-02-21T04:30:51;9.88;;;2.67;;
85318;SDS011;75722;49.004;12.120;2024-02-21T04:33:17;7.55;;;2.50;;
85318;SDS011;75722;49.004;12.120;2024-02-21T04:35:42;10.02;;;2.10;;
85318;SDS011;75722;49.004;12.120;2024-02-21T04:38:07;6.05;;;2.20;;
85318;SDS011;75722;49.004;12.120;2024-02-21T04:40:33;6.30;;;1.77;;
85318;SDS011;75722;49.004;12.120;2024-02-21T04:42:58;4.00;;;1.90;;
85318;SDS011;75722;49.004;12.120;2024-02-21T04:45:24;5.22;;;2.30;;
85318;SDS011;75722;49.004;12.120;2024-02-21T04:47:49;8.00;;;2.20;;
85318;SDS011;75722;49.004;12.120;2024-02-21T04:50:14;10.03;;;2.33;;
85318;SDS011;75722;49.004;12.120;2024-02-21T04:52:40;9.10;;;2.08;;
85318;SDS011;75722;49.004;12.120;2024-02-21T04:55:05;6.20;;;2.00;;
85318;SDS011;75722;49.004;12.120;2024-02-21T04:57:31;4.60;;;2.25;;
85318;SDS011;75722;49.004;12.120;2024-02-21T04:59:57;5.50;;;2.17;;
85318;SDS011;75722;49.004;12.120;2024-02-21T05:02:22;5.40;;;2.20;;
85318;SDS011;75722;49.004;12.120;2024-02-21T05:04:49;6.57;;;2.15;;
85318;SDS011;75722;49.004;12.120;2024-02-21T05:07:15;9.73;;;2.15;;
85318;SDS011;75722;49.004;12.120;2024-02-21T05:09:41;10.65;;;2.75;;
85318;SDS011;75722;49.004;12.120;2024-02-21T05:12:07;8.10;;;2.20;;
85318;SDS011;75722;49.004;12.120;2024-02-21T05:14:33;8.52;;;2.33;;
85318;SDS011;75722;49.004;12.120;2024-02-21T05:16:58;7.43;;;2.22;;
85318;SDS011;75722;49.004;12.120;2024-02-21T05:19:23;5.10;;;2.10;;
85318;SDS011;75722;49.004;12.120;2024-02-21T05:21:49;7.63;;;2.20;;
85318;SDS011;75722;49.004;12.120;2024-02-21T05:24:14;10.20;;;2.57;;
85318;SDS011;75722;49.004;12.120;2024-02-21T05:26:39;3.20;;;2.00;;
85318;SDS011;75722;49.004;12.120;2024-02-21T05:29:05;5.78;;;2.40;;
85318;SDS011;75722;49.004;12.120;2024-02-21T05:31:42;7.03;;;2.10;;
85318;SDS011;75722;49.004;12.120;2024-02-21T05:34:28;4.97;;;1.65;;
85318;SDS011;75722;49.004;12.120;2024-02-21T05:36:53;4.43;;;1.75;;
85318;SDS011;75722;49.004;12.120;2024-02-21T05:39:19;7.00;;;2.20;;
85318;SDS011;75722;49.004;12.120;2024-02-21T05:41:47;7.25;;;2.58;;
85318;SDS011;75722;49.004;12.120;2024-02-21T05:44:12;3.83;;;1.90;;
85318;SDS011;75722;49.004;12.120;2024-02-21T05:46:38;4.10;;;1.70;;
85318;SDS011;75722;49.004;12.120;2024-02-21T05:49:03;4.00;;;1.60;;
85318;SDS011;75722;49.004;12.120;2024-02-21T05:51:32;7.80;;;2.33;;
85318;SDS011;75722;49.004;12.120;2024-02-21T05:54:00;5.38;;;1.95;;
85318;SDS011;75722;49.004;12.120;2024-02-21T05:56:26;6.72;;;2.15;;
85318;SDS011;75722;49.004;12.120;2024-02-21T05:58:51;4.63;;;1.90;;
85318;SDS011;75722;49.004;12.120;2024-02-21T06:01:17;7.00;;;2.30;;
85318;SDS011;75722;49.004;12.120;2024-02-21T06:03:43;6.25;;;1.85;;
85318;SDS011;75722;49.004;12.120;2024-02-21T06:06:08;12.35;;;2.85;;
85318;SDS011;75722;49.004;12.120;2024-02-21T06:08:33;7.60;;;2.33;;
85318;SDS011;75722;49.004;12.120;2024-02-21T06:10:59;6.50;;;2.20;;
85318;SDS011;75722;49.004;12.120;2024-02-21T06:13:24;5.00;;;2.20;;
85318;SDS011;75722;49.004;12.120;2024-02-21T06:15:50;8.02;;;2.03;;
85318;SDS011;75722;49.004;12.120;2024-02-21T06:18:19;8.07;;;2.65;;
85318;SDS011;75722;49.004;12.120;2024-02-21T06:20:45;7.50;;;2.28;;
85318;SDS011;75722;49.004;12.120;2024-02-21T06:23:11;7.13;;;2.10;;
85318;SDS011;75722;49.004;12.120;2024-02-21T06:25:43;8.55;;;2.35;;
85318;SDS011;75722;49.004;12.120;2024-02-21T06:28:08;7.90;;;2.85;;
85318;SDS011;75722;49.004;12.120;2024-02-21T06:30:35;6.55;;;1.90;;
85318;SDS011;75722;49.004;12.120;2024-02-21T06:33:01;6.03;;;1.80;;
85318;SDS011;75722;49.004;12.120;2024-02-21T06:35:27;2.92;;;1.98;;
85318;SDS011;75722;49.004;12.120;2024-02-21T06:37:53;3.22;;;1.58;;
85318;SDS011;75722;49.004;12.120;2024-02-21T06:40:20;5.80;;;2.10;;
85318;SDS011;75722;49.004;12.120;2024-02-21T06:45:12;3.90;;;1.70;;
85318;SDS011;75722;49.004;12.120;2024-02-21T06:47:37;2.63;;;1.23;;
85318;SDS011;75722;49.004;12.120;2024-02-21T06:50:06;9.30;;;1.92;;
85318;SDS011;75722;49.004;12.120;2024-02-21T06:52:31;14.50;;;2.50;;
85318;SDS011;75722;49.004;12.120;2024-02-21T06:54:57;8.13;;;2.57;;
85318;SDS011;75722;49.004;12.120;2024-02-21T06:57:22;8.27;;;2.50;;
85318;SDS011;75722;49.004;12.120;2024-02-21T06:59:48;8.85;;;2.08;;
85318;SDS011;75722;49.004;12.120;2024-02-21T07:02:13;4.03;;;1.70;;
85318;SDS011;75722;49.004;12.120;2024-02-21T07:04:38;8.20;;;2.50;;
85318;SDS011;75722;49.004;12.120;2024-02-21T07:07:04;7.80;;;3.03;;
85318;SDS011;75722;49.004;12.120;2024-02-21T07:09:29;5.93;;;2.35;;
85318;SDS011;75722;49.004;12.120;2024-02-21T07:11:56;13.20;;;3.35;;
85318;SDS011;75722;49.004;12.120;2024-02-21T07:14:25;5.63;;;2.53;;
85318;SDS011;75722;49.004;12.120;2024-02-21T07:16:51;11.35;;;3.40;;
85318;SDS011;75722;49.004;12.120;2024-02-21T07:19:16;9.77;;;2.88;;
85318;SDS011;75722;49.004;12.120;2024-02-21T07:21:42;12.35;;;2.58;;
85318;SDS011;75722;49.004;12.120;2024-02-21T07:24:07;7.15;;;2.88;;
85318;SDS011;75722;49.004;12.120;2024-02-21T07:26:33;7.80;;;2.50;;
85318;SDS011;75722;49.004;12.120;2024-02-21T07:28:58;13.35;;;3.03;;
85318;SDS011;75722;49.004;12.120;2024-02-21T07:31:24;5.65;;;2.80;;
85318;SDS011;75722;49.004;12.120;2024-02-21T07:33:49;7.03;;;2.50;;
85318;SDS011;75722;49.004;12.120;2024-02-21T07:36:15;8.10;;;2.37;;
85318;SDS011;75722;49.004;12.120;2024-02-21T07:38:41;13.95;;;3.13;;
85318;SDS011;75722;49.004;12.120;2024-02-21T07:41:06;8.20;;;2.53;;
85318;SDS011;75722;49.004;12.120;2024-02-21T07:43:31;7.07;;;2.40;;
85318;SDS011;75722;49.004;12.120;2024-02-21T07:45:57;5.50;;;2.22;;
85318;SDS011;75722;49.004;12.120;2024-02-21T07:48:22;4.45;;;2.13;;
85318;SDS011;75722;49.004;12.120;2024-02-21T07:50:51;6.68;;;2.30;;
85318;SDS011;75722;49.004;12.120;2024-02-21T07:53:17;12.63;;;2.28;;
85318;SDS011;75722;49.004;12.120;2024-02-21T07:55:42;10.50;;;2.40;;
85318;SDS011;75722;49.004;12.120;2024-02-21T07:58:07;6.53;;;2.40;;
85318;SDS011;75722;49.004;12.120;2024-02-21T08:00:33;6.72;;;2.10;;
85318;SDS011;75722;49.004;12.120;2024-02-21T08:02:58;5.47;;;2.20;;
85318;SDS011;75722;49.004;12.120;2024-02-21T08:05:23;6.47;;;2.50;;
85318;SDS011;75722;49.004;12.120;2024-02-21T08:07:49;3.47;;;2.20;;
85318;SDS011;75722;49.004;12.120;2024-02-21T08:10:15;2.83;;;1.85;;
85318;SDS011;75722;49.004;12.120;2024-02-21T08:12:40;6.57;;;1.77;;
85318;SDS011;75722;49.004;12.120;2024-02-21T08:15:06;8.13;;;2.47;;
85318;SDS011;75722;49.004;12.120;2024-02-21T08:17:33;8.18;;;2.00;;
85318;SDS011;75722;49.004;12.120;2024-02-21T08:19:59;4.25;;;1.70;;
85318;SDS011;75722;49.004;12.120;2024-02-21T08:22:24;4.60;;;1.87;;
85318;SDS011;75722;49.004;12.120;2024-02-21T08:24:49;5.43;;;1.73;;
85318;SDS011;75722;49.004;12.120;2024-02-21T08:27:15;3.40;;;2.10;;
85318;SDS011;75722;49.004;12.120;2024-02-21T08:29:40;7.88;;;2.65;;
85318;SDS011;75722;49.004;12.120;2024-02-21T08:32:05;3.70;;;2.03;;
85318;SDS011;75722;49.004;12.120;2024-02-21T08:34:31;3.47;;;1.67;;
85318;SDS011;75722;49.004;12.120;2024-02-21T08:36:59;6.10;;;2.10;;
85318;SDS011;75722;49.004;12.120;2024-02-21T08:39:24;5.25;;;1.80;;
85318;SDS011;75722;49.004;12.120;2024-02-21T08:41:50;8.60;;;2.28;;
85318;SDS011;75722;49.004;12.120;2024-02-21T08:44:16;6.47;;;1.98;;
85318;SDS011;75722;49.004;12.120;2024-02-21T08:46:41;5.20;;;2.17;;
85318;SDS011;75722;49.004;12.120;2024-02-21T08:49:10;7.25;;;2.28;;
85318;SDS011;75722;49.004;12.120;2024-02-21T08:51:35;7.35;;;2.60;;
85318;SDS011;75722;49.004;12.120;2024-02-21T08:54:00;7.43;;;2.22;;
85318;SDS011;75722;49.004;12.120;2024-02-21T08:56:27;6.82;;;2.63;;
85318;SDS011;75722;49.004;12.120;2024-02-21T08:58:52;7.15;;;2.35;;
85318;SDS011;75722;49.004;12.120;2024-02-21T09:01:17;4.85;;;2.05;;
85318;SDS011;75722;49.004;12.120;2024-02-21T09:03:43;6.18;;;2.28;;
85318;SDS011;75722;49.004;12.120;2024-02-21T09:06:10;15.18;;;2.40;;
85318;SDS011;75722;49.004;12.120;2024-02-21T09:08:38;5.22;;;2.10;;
85318;SDS011;75722;49.004;12.120;2024-02-21T09:11:05;6.03;;;2.13;;
85318;SDS011;75722;49.004;12.120;2024-02-21T09:13:31;5.55;;;1.90;;
85318;SDS011;75722;49.004;12.120;2024-02-21T09:15:56;6.82;;;2.30;;
85318;SDS011;75722;49.004;12.120;2024-02-21T09:18:22;7.50;;;2.08;;
85318;SDS011;75722;49.004;12.120;2024-02-21T09:20:47;5.72;;;2.05;;
85318;SDS011;75722;49.004;12.120;2024-02-21T09:23:12;6.20;;;2.10;;
85318;SDS011;75722;49.004;12.120;2024-02-21T09:25:38;5.22;;;2.20;;
85318;SDS011;75722;49.004;12.120;2024-02-21T09:28:05;5.53;;;2.45;;
85318;SDS011;75722;49.004;12.120;2024-02-21T09:30:31;6.15;;;2.28;;
85318;SDS011;75722;49.004;12.120;2024-02-21T09:32:56;5.50;;;2.20;;
85318;SDS011;75722;49.004;12.120;2024-02-21T09:35:24;4.53;;;2.00;;
85318;SDS011;75722;49.004;12.120;2024-02-21T09:37:51;7.28;;;2.22;;
85318;SDS011;75722;49.004;12.120;2024-02-21T09:40:17;8.00;;;2.25;;
85318;SDS011;75722;49.004;12.120;2024-02-21T09:42:44;6.10;;;2.47;;
85318;SDS011;75722;49.004;12.120;2024-02-21T09:45:21;6.47;;;2.03;;
85318;SDS011;75722;49.004;12.120;2024-02-21T09:47:58;11.13;;;2.65;;
85318;SDS011;75722;49.004;12.120;2024-02-21T09:50:38;6.53;;;2.20;;
85318;SDS011;75722;49.004;12.120;2024-02-21T09:53:08;4.50;;;2.05;;
85318;SDS011;75722;49.004;12.120;2024-02-21T09:55:36;10.02;;;2.45;;
85318;SDS011;75722;49.004;12.120;2024-02-21T09:58:05;6.10;;;2.00;;
85318;SDS011;75722;49.004;12.120;2024-02-21T10:00:30;4.07;;;2.00;;
85318;SDS011;75722;49.004;12.120;2024-02-21T10:02:56;5.45;;;1.95;;
85318;SDS011;75722;49.004;12.120;2024-02-21T10:05:21;7.72;;;2.42;;
85318;SDS011;75722;49.004;12.120;2024-02-21T10:07:47;6.72;;;2.90;;
85318;SDS011;75722;49.004;12.120;2024-02-21T10:10:13;7.50;;;2.20;;
85318;SDS011;75722;49.004;12.120;2024-02-21T10:12:49;7.85;;;2.50;;
85318;SDS011;75722;49.004;12.120;2024-02-21T10:15:19;6.97;;;2.22;;
85318;SDS011;75722;49.004;12.120;2024-02-21T10:17:45;5.65;;;2.35;;
85318;SDS011;75722;49.004;12.120;2024-02-21T10:20:11;5.85;;;2.22;;
85318;SDS011;75722;49.004;12.120;2024-02-21T10:22:37;7.10;;;2.10;;
85318;SDS011;75722;49.004;12.120;2024-02-21T10:25:13;6.47;;;2.10;;
85318;SDS011;75722;49.004;12.120;2024-02-21T10:27:38;6.05;;;1.70;;
85318;SDS011;75722;49.004;12.120;2024-02-21T10:30:08;5.93;;;2.42;;
85318;SDS011;75722;49.004;12.120;2024-02-21T10:32:59;6.57;;;2.05;;
85318;SDS011;75722;49.004;12.120;2024-02-21T10:35:30;6.68;;;1.90;;
85318;SDS011;75722;49.004;12.120;2024-02-21T10:37:59;3.83;;;1.95;;
85318;SDS011;75722;49.004;12.120;2024-02-21T10:40:25;5.82;;;2.17;;
85318;SDS011;75722;49.004;12.120;2024-02-21T10:42:55;6.55;;;2.50;;
85318;SDS011;75722;49.004;12.120;2024-02-21T10:45:31;7.65;;;2.28;;
85318;SDS011;75722;49.004;12.120;2024-02-21T10:48:08;4.72;;;1.92;;
85318;SDS011;75722;49.004;12.120;2024-02-21T10:50:37;7.78;;;1.80;;
85318;SDS011;75722;49.004;12.120;2024-02-21T10:53:31;7.88;;;2.22;;
85318;SDS011;75722;49.004;12.120;2024-02-21T10:58:49;6.50;;;2.03;;
85318;SDS011;75722;49.004;12.120;2024-02-21T11:01:14;7.15;;;1.85;;
85318;SDS011;75722;49.004;12.120;2024-02-21T11:03:41;6.50;;;2.03;;
85318;SDS011;75722;49.004;12.120;2024-02-21T11:06:09;6.72;;;1.90;;
85318;SDS011;75722;49.004;12.120;2024-02-21T11:08:36;5.40;;;2.00;;
85318;SDS011;75722;49.004;12.120;2024-02-21T11:11:01;5.75;;;2.35;;
85318;SDS011;75722;49.004;12.120;2024-02-21T11:13:45;7.22;;;2.30;;
85318;SDS011;75722;49.004;12.120;2024-02-21T11:16:12;4.45;;;1.80;;
85318;SDS011;75722;49.004;12.120;2024-02-21T11:18:46;5.93;;;1.70;;
85318;SDS011;75722;49.004;12.120;2024-02-21T11:21:12;6.55;;;1.67;;
85318;SDS011;75722;49.004;12.120;2024-02-21T11:23:37;4.30;;;1.73;;
85318;SDS011;75722;49.004;12.120;2024-02-21T11:26:06;7.82;;;2.00;;
85318;SDS011;75722;49.004;12.120;2024-02-21T11:28:32;4.25;;;1.48;;
85318;SDS011;75722;49.004;12.120;2024-02-21T11:31:13;4.55;;;1.73;;
85318;SDS011;75722;49.004;12.120;2024-02-21T11:33:40;5.45;;;1.65;;
85318;SDS011;75722;49.004;12.120;2024-02-21T11:36:07;3.83;;;1.50;;
85318;SDS011;75722;49.004;12.120;2024-02-21T11:38:33;5.68;;;1.65;;
85318;SDS011;75722;49.004;12.120;2024-02-21T11:40:59;4.72;;;1.42;;
85318;SDS011;75722;49.004;12.120;2024-02-21T11:43:24;4.63;;;1.83;;
85318;SDS011;75722;49.004;12.120;2024-02-21T11:45:50;8.50;;;1.70;;
85318;SDS011;75722;49.004;12.120;2024-02-21T11:48:22;5.97;;;1.92;;
85318;SDS011;75722;49.004;12.120;2024-02-21T11:50:56;6.95;;;2.10;;
85318;SDS011;75722;49.004;12.120;2024-02-21T11:53:22;6.00;;;1.88;;
85318;SDS011;75722;49.004;12.120;2024-02-21T11:55:48;5.80;;;1.58;;
85318;SDS011;75722;49.004;12.120;2024-02-21T11:58:14;8.25;;;1.80;;
85318;SDS011;75722;49.004;12.120;2024-02-21T12:00:40;4.95;;;1.65;;
85318;SDS011;75722;49.004;12.120;2024-02-21T12:03:06;2.72;;;1.38;;
85318;SDS011;75722;49.004;12.120;2024-02-21T12:05:33;4.07;;;1.95;;
85318;SDS011;75722;49.004;12.120;2024-02-21T12:07:59;8.50;;;1.58;;
85318;SDS011;75722;49.004;12.120;2024-02-21T12:10:28;4.72;;;1.25;;
85318;SDS011;75722;49.004;12.120;2024-02-21T12:12:53;2.65;;;1.30;;
85318;SDS011;75722;49.004;12.120;2024-02-21T12:15:23;6.70;;;1.80;;
85318;SDS011;75722;49.004;12.120;2024-02-21T12:17:48;3.08;;;1.00;;
85318;SDS011;75722;49.004;12.120;2024-02-21T12:20:16;4.20;;;1.33;;
85318;SDS011;75722;49.004;12.120;2024-02-21T12:22:42;4.78;;;1.15;;
85318;SDS011;75722;49.004;12.120;2024-02-21T12:25:17;4.20;;;1.08;;
85318;SDS011;75722;49.004;12.120;2024-02-21T12:27:52;3.90;;;1.95;;
85318;SDS011;75722;49.004;12.120;2024-02-21T12:30:18;5.53;;;1.25;;
85318;SDS011;75722;49.004;12.120;2024-02-21T12:32:44;5.35;;;1.25;;
85318;SDS011;75722;49.004;12.120;2024-02-21T12:35:10;6.15;;;1.52;;
85318;SDS011;75722;49.004;12.120;2024-02-21T12:37:36;3.90;;;1.23;;
85318;SDS011;75722;49.004;12.120;2024-02-21T12:40:03;2.72;;;1.10;;
85318;SDS011;75722;49.004;12.120;2024-02-21T12:42:31;4.22;;;1.38;;
85318;SDS011;75722;49.004;12.120;2024-02-21T12:44:58;3.83;;;1.05;;
85318;SDS011;75722;49.004;12.120;2024-02-21T12:47:23;3.50;;;1.30;;
85318;SDS011;75722;49.004;12.120;2024-02-21T12:49:49;2.38;;;0.90;;
85318;SDS011;75722;49.004;12.120;2024-02-21T12:52:15;2.80;;;1.25;;
85318;SDS011;75722;49.004;12.120;2024-02-21T12:54:41;3.08;;;1.10;;
85318;SDS011;75722;49.004;12.120;2024-02-21T12:57:07;4.80;;;1.27;;
85318;SDS011;75722;49.004;12.120;2024-02-21T12:59:33;3.75;;;1.13;;
85318;SDS011;75722;49.004;12.120;2024-02-21T13:01:58;4.33;;;1.37;;
85318;SDS011;75722;49.004;12.120;2024-02-21T13:04:23;7.13;;;1.30;;
85318;SDS011;75722;49.004;12.120;2024-02-21T13:06:49;6.63;;;1.70;;
85318;SDS011;75722;49.004;12.120;2024-02-21T13:09:14;3.97;;;1.20;;
85318;SDS011;75722;49.004;12.120;2024-02-21T13:11:40;5.03;;;1.15;;
85318;SDS011;75722;49.004;12.120;2024-02-21T13:14:07;3.63;;;1.05;;
85318;SDS011;75722;49.004;12.120;2024-02-21T13:16:32;5.88;;;1.05;;
85318;SDS011;75722;49.004;12.120;2024-02-21T13:19:04;2.90;;;1.30;;
85318;SDS011;75722;49.004;12.120;2024-02-21T13:21:29;2.00;;;1.00;;
85318;SDS011;75722;49.004;12.120;2024-02-21T13:23:54;2.25;;;1.00;;
85318;SDS011;75722;49.004;12.120;2024-02-21T13:26:21;6.18;;;1.60;;
85318;SDS011;75722;49.004;12.120;2024-02-21T13:28:46;5.05;;;1.27;;
85318;SDS011;75722;49.004;12.120;2024-02-21T13:31:13;6.25;;;1.17;;
85318;SDS011;75722;49.004;12.120;2024-02-21T13:33:38;5.03;;;1.17;;
85318;SDS011;75722;49.004;12.120;2024-02-21T13:36:04;3.67;;;1.20;;
85318;SDS011;75722;49.004;12.120;2024-02-21T13:38:29;1.48;;;1.00;;
85318;SDS011;75722;49.004;12.120;2024-02-21T13:40:55;3.00;;;1.00;;
85318;SDS011;75722;49.004;12.120;2024-02-21T13:43:20;3.15;;;1.30;;
85318;SDS011;75722;49.004;12.120;2024-02-21T13:45:55;3.60;;;1.10;;
85318;SDS011;75722;49.004;12.120;2024-02-21T13:48:24;3.13;;;1.05;;
85318;SDS011;75722;49.004;12.120;2024-02-21T13:50:49;4.60;;;1.27;;
85318;SDS011;75722;49.004;12.120;2024-02-21T13:53:15;4.22;;;1.65;;
85318;SDS011;75722;49.004;12.120;2024-02-21T13:55:43;6.22;;;1.70;;
85318;SDS011;75722;49.004;12.120;2024-02-21T13:58:08;2.97;;;1.30;;
85318;SDS011;75722;49.004;12.120;2024-02-21T14:00:34;1.77;;;0.93;;
85318;SDS011;75722;49.004;12.120;2024-02-21T14:03:01;2.08;;;1.13;;
85318;SDS011;75722;49.004;12.120;2024-02-21T14:05:26;2.45;;;1.10;;
85318;SDS011;75722;49.004;12.120;2024-02-21T14:07:51;4.90;;;1.42;;
85318;SDS011;75722;49.004;12.120;2024-02-21T14:10:19;3.40;;;1.20;;
85318;SDS011;75722;49.004;12.120;2024-02-21T14:12:47;3.10;;;1.23;;
85318;SDS011;75722;49.004;12.120;2024-02-21T14:15:16;4.68;;;0.98;;
85318;SDS011;75722;49.004;12.120;2024-02-21T14:17:42;4.82;;;1.10;;
85318;SDS011;75722;49.004;12.120;2024-02-21T14:20:07;7.38;;;1.02;;
85318;SDS011;75722;49.004;12.120;2024-02-21T14:22:33;2.92;;;0.93;;
85318;SDS011;75722;49.004;12.120;2024-02-21T14:24:59;2.58;;;1.15;;
85318;SDS011;75722;49.004;12.120;2024-02-21T14:27:25;2.85;;;1.20;;
85318;SDS011;75722;49.004;12.120;2024-02-21T14:29:50;4.03;;;1.23;;
85318;SDS011;75722;49.004;12.120;2024-02-21T14:32:16;3.43;;;0.80;;
85318;SDS011;75722;49.004;12.120;2024-02-21T14:34:42;5.75;;;1.35;;